Wetterdaten: aktuell Montag, 18.03.2019 14:35
Datum Zeit Temp. A. Feuchte A. Luftdruck Regen Wind Richtung Richtung Taupunkt Windchill Windben
18.03.2019 14:35 6,1 C 80 % 1019,5 hPa 0,0 l/m 16,5 km/h (3 Bft) S-SW 207 2,9 C -0,3 C 22,5 km/h (4 Bft)
18.03.2019 14:30 6,1 C 80 % 1019,6 hPa 0,0 l/m 21,2 km/h (4 Bft) W-SW 238 2,9 C -2,2 C 27,4 km/h (5 Bft)
18.03.2019 14:25 6,0 C 81 % 1019,5 hPa 0,0 l/m 21,1 km/h (4 Bft) S-SW 209 3,0 C -2,3 C 27,4 km/h (5 Bft)
18.03.2019 14:20 5,9 C 80 % 1019,6 hPa 0,0 l/m 24,4 km/h (4 Bft) W-SW 242 2,7 C -3,5 C 32,2 km/h (5 Bft)
18.03.2019 14:15 6,1 C 82 % 1019,6 hPa 0,0 l/m 27,4 km/h (5 Bft) SW 223 3,3 C -4,1 C 35,4 km/h (5 Bft)
18.03.2019 14:10 5,8 C 82 % 1019,6 hPa 0,0 l/m 24,7 km/h (4 Bft) SW 229 3,0 C -3,8 C 32,2 km/h (5 Bft)
18.03.2019 14:05 5,1 C 84 % 1019,6 hPa 0,0 l/m 19,9 km/h (4 Bft) SW 233 2,6 C -3,0 C 27,4 km/h (5 Bft)
18.03.2019 14:00 4,7 C 84 % 1019,7 hPa 0,0 l/m 11,6 km/h (2 Bft) SW 236 2,2 C 0,7 C 17,7 km/h (3 Bft)
18.03.2019 13:55 4,4 C 86 % 1019,7 hPa 0,0 l/m 12,2 km/h (2 Bft) SW 223 2,3 C -0,1 C 16,1 km/h (3 Bft)
18.03.2019 13:50 4,1 C 87 % 1019,8 hPa 0,0 l/m 17,0 km/h (3 Bft) SW 235 2,1 C -3,0 C 20,9 km/h (4 Bft)
18.03.2019 13:45 3,8 C 87 % 1019,8 hPa 0,0 l/m 20,9 km/h (4 Bft) SW 218 1,8 C -5,1 C 27,4 km/h (5 Bft)
18.03.2019 13:40 3,6 C 88 % 1019,8 hPa 0,0 l/m 20,2 km/h (4 Bft) S-SW 209 1,8 C -5,1 C 27,4 km/h (5 Bft)
18.03.2019 13:35 3,3 C 86 % 1019,9 hPa 0,0 l/m 15,4 km/h (3 Bft) SW 214 1,2 C -3,2 C 24,1 km/h (4 Bft)
18.03.2019 13:30 3,2 C 87 % 1019,9 hPa 0,0 l/m 17,0 km/h (3 Bft) S-SW 204 1,2 C -4,1 C 24,1 km/h (4 Bft)
18.03.2019 13:25 3,0 C 88 % 1019,9 hPa 0,0 l/m 17,2 km/h (3 Bft) SW 225 1,2 C -4,5 C 24,1 km/h (4 Bft)
18.03.2019 13:20 2,7 C 89 % 1019,9 hPa 0,0 l/m 15,8 km/h (3 Bft) SW 235 1,1 C -4,1 C 20,9 km/h (4 Bft)
18.03.2019 13:15 2,3 C 89 % 1019,9 hPa 0,0 l/m 14,2 km/h (3 Bft) W-SW 243 0,7 C -3,7 C 19,3 km/h (3 Bft)
18.03.2019 13:10 2,2 C 87 % 1019,8 hPa 0,0 l/m 19,5 km/h (3 Bft) SW 229 0,3 C -6,6 C 24,1 km/h (4 Bft)
18.03.2019 13:05 2,5 C 83 % 1019,9 hPa 0,0 l/m 30,0 km/h (5 Bft) W-SW 257 -0,1 C -9,9 C 43,5 km/h (6 Bft)
18.03.2019 13:00 3,3 C 80 % 1019,9 hPa 0,0 l/m 35,6 km/h (5 Bft) W 262 0,2 C -10,1 C 43,5 km/h (6 Bft)
18.03.2019 12:55 4,4 C 76 % 1019,7 hPa 0,2 l/m 30,3 km/h (5 Bft) W 271 0,5 C -7,3 C 46,7 km/h (6 Bft)
18.03.2019 12:50 4,8 C 69 % 1019,5 hPa 0,0 l/m 25,9 km/h (4 Bft) W 267 -0,4 C -5,5 C 33,8 km/h (5 Bft)
18.03.2019 12:45 4,9 C 70 % 1019,5 hPa 0,0 l/m 25,1 km/h (4 Bft) W 273 -0,1 C -5,1 C 35,4 km/h (5 Bft)
18.03.2019 12:40 5,1 C 70 % 1019,5 hPa 0,0 l/m 16,5 km/h (3 Bft) W-SW 249 0,1 C -1,5 C 22,5 km/h (4 Bft)
18.03.2019 12:35 5,1 C 71 % 1019,6 hPa 0,0 l/m 20,5 km/h (4 Bft) W-SW 256 0,3 C -3,2 C 29,0 km/h (5 Bft)
18.03.2019 12:30 5,1 C 72 % 1019,6 hPa 0,0 l/m 24,3 km/h (4 Bft) W 275 0,5 C -4,6 C 32,2 km/h (5 Bft)
18.03.2019 12:25 5,1 C 77 % 1019,6 hPa 0,0 l/m 23,3 km/h (4 Bft) W 270 1,4 C -4,3 C 30,6 km/h (5 Bft)
18.03.2019 12:20 4,8 C 78 % 1019,6 hPa 0,0 l/m 19,8 km/h (3 Bft) W-SW 247 1,3 C -3,4 C 29,0 km/h (5 Bft)
18.03.2019 12:15 4,7 C 76 % 1019,6 hPa 0,0 l/m 23,0 km/h (4 Bft) W-SW 248 0,8 C -4,7 C 30,6 km/h (5 Bft)
18.03.2019 12:10 4,8 C 77 % 1019,5 hPa 0,0 l/m 24,2 km/h (4 Bft) W 261 1,1 C -5,0 C 33,8 km/h (5 Bft)
18.03.2019 12:05 4,8 C 81 % 1019,6 hPa 0,0 l/m 23,5 km/h (4 Bft) W 270 1,8 C -4,7 C 32,2 km/h (5 Bft)
18.03.2019 12:00 4,6 C 84 % 1019,6 hPa 0,0 l/m 21,0 km/h (4 Bft) SW 235 2,1 C -4,1 C 27,4 km/h (5 Bft)
18.03.2019 11:55 4,4 C 81 % 1019,7 hPa 0,0 l/m 20,6 km/h (4 Bft) W 259 1,4 C -4,2 C 27,4 km/h (5 Bft)
18.03.2019 11:50 4,4 C 85 % 1019,5 hPa 0,0 l/m 24,6 km/h (4 Bft) W-SW 248 2,1 C -5,6 C 35,4 km/h (5 Bft)
18.03.2019 11:45 4,1 C 88 % 1019,5 hPa 0,0 l/m 18,3 km/h (3 Bft) W-SW 239 2,3 C -3,6 C 32,2 km/h (5 Bft)
18.03.2019 11:40 3,7 C 92 % 1019,4 hPa 0,0 l/m 18,7 km/h (3 Bft) W 267 2,5 C -4,3 C 27,4 km/h (5 Bft)
18.03.2019 11:35 3,2 C 93 % 1019,5 hPa 0,0 l/m 12,5 km/h (2 Bft) W 272 2,2 C -1,6 C 17,7 km/h (3 Bft)
18.03.2019 11:30 2,7 C 94 % 1019,5 hPa 0,0 l/m 7,6 km/h (2 Bft) W-NW 290 1,8 C 1,6 C 14,5 km/h (3 Bft)
18.03.2019 11:25 2,2 C 93 % 1019,5 hPa 0,0 l/m 14,5 km/h (3 Bft) W-NW 285 1,2 C -4,0 C 24,1 km/h (4 Bft)
18.03.2019 11:20 1,8 C 93 % 1019,5 hPa 0,0 l/m 18,5 km/h (3 Bft) W 274 0,8 C -6,6 C 32,2 km/h (5 Bft)
18.03.2019 11:15 1,7 C 92 % 1019,4 hPa 0,2 l/m 16,9 km/h (3 Bft) W 270 0,5 C -6,0 C 20,9 km/h (4 Bft)
18.03.2019 11:10 1,6 C 92 % 1019,3 hPa 0,0 l/m 18,5 km/h (3 Bft) W 263 0,4 C -6,9 C 29,0 km/h (5 Bft)
18.03.2019 11:05 1,8 C 91 % 1019,2 hPa 0,0 l/m 16,1 km/h (3 Bft) W 267 0,5 C -5,4 C 25,7 km/h (4 Bft)
18.03.2019 11:00 2,0 C 89 % 1019,1 hPa 0,0 l/m 21,1 km/h (4 Bft) W-SW 242 0,4 C -7,5 C 29,0 km/h (5 Bft)
18.03.2019 10:55 2,5 C 89 % 1019,1 hPa 0,0 l/m 20,9 km/h (4 Bft) W-SW 239 0,9 C -6,8 C 27,4 km/h (5 Bft)
18.03.2019 10:50 2,8 C 86 % 1019,0 hPa 0,0 l/m 22,2 km/h (4 Bft) W-SW 240 0,7 C -6,9 C 32,2 km/h (5 Bft)
18.03.2019 10:45 2,9 C 82 % 1018,8 hPa 0,0 l/m 18,5 km/h (3 Bft) SW 231 0,1 C -5,2 C 27,4 km/h (5 Bft)
18.03.2019 10:40 3,0 C 81 % 1018,7 hPa 0,0 l/m 19,2 km/h (3 Bft) W-SW 246 0,1 C -5,4 C 29,0 km/h (5 Bft)
18.03.2019 10:35 3,1 C 81 % 1018,6 hPa 0,0 l/m 19,8 km/h (3 Bft) W 277 0,2 C -5,5 C 27,4 km/h (5 Bft)
18.03.2019 10:30 3,1 C 81 % 1018,6 hPa 0,0 l/m 19,0 km/h (3 Bft) W 271 0,2 C -5,2 C 24,1 km/h (4 Bft)
18.03.2019 10:25 3,1 C 82 % 1018,6 hPa 0,0 l/m 18,4 km/h (3 Bft) W 263 0,3 C -4,9 C 22,5 km/h (4 Bft)
18.03.2019 10:20 2,9 C 81 % 1018,5 hPa 0,0 l/m 20,4 km/h (4 Bft) W-SW 246 -0,0 C -6,1 C 25,7 km/h (4 Bft)
18.03.2019 10:15 2,9 C 81 % 1018,4 hPa 0,0 l/m 21,5 km/h (4 Bft) W 275 -0,0 C -6,5 C 30,6 km/h (5 Bft)
18.03.2019 10:10 2,9 C 82 % 1018,4 hPa 0,0 l/m 16,7 km/h (3 Bft) W 273 0,1 C -4,4 C 22,5 km/h (4 Bft)
18.03.2019 10:05 2,9 C 82 % 1018,4 hPa 0,0 l/m 20,2 km/h (4 Bft) W-SW 238 0,1 C -6,0 C 30,6 km/h (5 Bft)
18.03.2019 10:00 2,9 C 82 % 1018,3 hPa 0,0 l/m 19,6 km/h (3 Bft) W-SW 246 0,1 C -5,7 C 25,7 km/h (4 Bft)
18.03.2019 09:55 3,0 C 82 % 1018,2 hPa 0,0 l/m 22,0 km/h (4 Bft) W-SW 258 0,2 C -6,6 C 30,6 km/h (5 Bft)
18.03.2019 09:50 3,1 C 80 % 1018,2 hPa 0,0 l/m 24,0 km/h (4 Bft) W 266 -0,0 C -7,2 C 32,2 km/h (5 Bft)
18.03.2019 09:45 3,1 C 81 % 1018,0 hPa 0,0 l/m 21,8 km/h (4 Bft) W 275 0,2 C -6,4 C 30,6 km/h (5 Bft)
18.03.2019 09:40 3,0 C 82 % 1018,0 hPa 0,0 l/m 23,4 km/h (4 Bft) W 269 0,2 C -7,1 C 35,4 km/h (5 Bft)
18.03.2019 09:35 2,8 C 82 % 1018,0 hPa 0,0 l/m 23,7 km/h (4 Bft) W-SW 258 0,0 C -7,5 C 33,8 km/h (5 Bft)
18.03.2019 09:30 2,7 C 83 % 1018,0 hPa 0,0 l/m 19,9 km/h (4 Bft) W 261 0,1 C -6,1 C 27,4 km/h (5 Bft)
18.03.2019 09:25 2,6 C 85 % 1018,0 hPa 0,0 l/m 18,7 km/h (3 Bft) W 279 0,3 C -5,7 C 24,1 km/h (4 Bft)
18.03.2019 09:20 2,4 C 86 % 1017,9 hPa 0,0 l/m 21,0 km/h (4 Bft) W-SW 254 0,3 C -7,0 C 29,0 km/h (5 Bft)
18.03.2019 09:15 2,3 C 86 % 1017,8 hPa 0,0 l/m 24,6 km/h (4 Bft) W-SW 253 0,2 C -8,5 C 32,2 km/h (5 Bft)
18.03.2019 09:10 2,1 C 85 % 1017,7 hPa 0,0 l/m 20,4 km/h (4 Bft) W-SW 248 -0,2 C -7,1 C 27,4 km/h (5 Bft)
18.03.2019 09:05 2,1 C 85 % 1017,8 hPa 0,0 l/m 22,3 km/h (4 Bft) W 260 -0,2 C -7,9 C 30,6 km/h (5 Bft)
18.03.2019 09:00 2,1 C 84 % 1017,7 hPa 0,0 l/m 23,9 km/h (4 Bft) W-SW 248 -0,3 C -8,5 C 30,6 km/h (5 Bft)
18.03.2019 08:55 2,2 C 85 % 1017,6 hPa 0,0 l/m 27,7 km/h (5 Bft) W 263 -0,1 C -9,6 C 33,8 km/h (5 Bft)
18.03.2019 08:50 2,2 C 86 % 1017,6 hPa 0,0 l/m 25,8 km/h (4 Bft) SW 232 0,1 C -9,0 C 37,0 km/h (5 Bft)
18.03.2019 08:45 2,3 C 87 % 1017,5 hPa 0,0 l/m 23,9 km/h (4 Bft) W-SW 255 0,4 C -8,2 C 35,4 km/h (5 Bft)
18.03.2019 08:40 2,3 C 89 % 1017,4 hPa 0,0 l/m 18,9 km/h (3 Bft) W-SW 244 0,7 C -6,2 C 27,4 km/h (5 Bft)
18.03.2019 08:35 2,2 C 89 % 1017,3 hPa 0,2 l/m 18,3 km/h (3 Bft) W 268 0,6 C -6,0 C 24,1 km/h (4 Bft)
18.03.2019 08:30 2,2 C 90 % 1017,2 hPa 0,0 l/m 17,7 km/h (3 Bft) W-SW 252 0,7 C -5,7 C 27,4 km/h (5 Bft)
18.03.2019 08:25 2,2 C 91 % 1017,1 hPa 0,0 l/m 21,4 km/h (4 Bft) W-SW 242 0,9 C -7,4 C 27,4 km/h (5 Bft)
18.03.2019 08:20 2,2 C 92 % 1017,1 hPa 0,2 l/m 17,0 km/h (3 Bft) SW 235 1,0 C -5,4 C 25,7 km/h (4 Bft)
18.03.2019 08:15 2,0 C 93 % 1017,1 hPa 0,0 l/m 16,8 km/h (3 Bft) W-SW 237 1,0 C -5,5 C 22,5 km/h (4 Bft)
18.03.2019 08:10 1,8 C 93 % 1017,1 hPa 0,2 l/m 17,2 km/h (3 Bft) W-SW 242 0,8 C -6,0 C 22,5 km/h (4 Bft)
18.03.2019 08:05 1,6 C 93 % 1017,0 hPa 0,0 l/m 14,7 km/h (3 Bft) W-SW 240 0,6 C -4,9 C 19,3 km/h (3 Bft)
18.03.2019 08:00 1,5 C 94 % 1017,0 hPa 0,0 l/m 13,2 km/h (3 Bft) SW 235 0,6 C -4,1 C 17,7 km/h (3 Bft)
18.03.2019 07:55 1,3 C 94 % 1016,9 hPa 0,0 l/m 11,6 km/h (2 Bft) SW 233 0,4 C -3,2 C 16,1 km/h (3 Bft)
18.03.2019 07:50 1,2 C 94 % 1016,9 hPa 0,0 l/m 12,7 km/h (3 Bft) SW 236 0,3 C -4,1 C 16,1 km/h (3 Bft)
18.03.2019 07:45 1,1 C 94 % 1016,9 hPa 0,0 l/m 12,9 km/h (3 Bft) SW 234 0,2 C -4,3 C 16,1 km/h (3 Bft)
18.03.2019 07:40 1,1 C 94 % 1016,9 hPa 0,0 l/m 12,2 km/h (2 Bft) SW 223 0,2 C -3,9 C 17,7 km/h (3 Bft)
18.03.2019 07:35 1,1 C 94 % 1016,8 hPa 0,0 l/m 10,4 km/h (2 Bft) SW 228 0,2 C -2,6 C 14,5 km/h (3 Bft)
18.03.2019 07:30 1,1 C 94 % 1016,8 hPa 0,0 l/m 8,6 km/h (2 Bft) SW 225 0,2 C -1,0 C 11,3 km/h (2 Bft)
18.03.2019 07:25 1,1 C 93 % 1016,7 hPa 0,0 l/m 7,8 km/h (2 Bft) SW 218 0,1 C -0,3 C 11,3 km/h (2 Bft)
18.03.2019 07:20 1,0 C 93 % 1016,7 hPa 0,0 l/m 9,7 km/h (2 Bft) SW 225 -0,0 C -2,1 C 14,5 km/h (3 Bft)
18.03.2019 07:15 1,0 C 93 % 1016,7 hPa 0,0 l/m 9,3 km/h (2 Bft) SW 216 -0,0 C -1,8 C 12,9 km/h (3 Bft)
18.03.2019 07:10 1,0 C 93 % 1016,6 hPa 0,0 l/m 10,4 km/h (2 Bft) S-SW 207 -0,0 C -2,7 C 12,9 km/h (3 Bft)
18.03.2019 07:05 1,0 C 93 % 1016,4 hPa 0,0 l/m 10,7 km/h (2 Bft) S-SW 213 -0,0 C -2,9 C 14,5 km/h (3 Bft)
18.03.2019 07:00 1,0 C 93 % 1016,4 hPa 0,0 l/m 10,8 km/h (2 Bft) S-SW 196 -0,0 C -3,0 C 14,5 km/h (3 Bft)
18.03.2019 06:55 1,0 C 93 % 1016,2 hPa 0,0 l/m 8,4 km/h (2 Bft) SW 217 -0,0 C -1,0 C 16,1 km/h (3 Bft)
18.03.2019 06:50 1,1 C 92 % 1016,2 hPa 0,0 l/m 8,2 km/h (2 Bft) S-SW 209 -0,1 C -0,7 C 11,3 km/h (2 Bft)
18.03.2019 06:45 1,1 C 92 % 1016,2 hPa 0,0 l/m 10,8 km/h (2 Bft) S-SW 209 -0,1 C -2,9 C 14,5 km/h (3 Bft)
18.03.2019 06:40 1,1 C 92 % 1016,1 hPa 0,0 l/m 9,7 km/h (2 Bft) SW 225 -0,1 C -2,0 C 12,9 km/h (3 Bft)
18.03.2019 06:35 1,1 C 92 % 1016,0 hPa 0,0 l/m 10,7 km/h (2 Bft) SW 229 -0,1 C -2,8 C 14,5 km/h (3 Bft)
18.03.2019 06:30 1,2 C 91 % 1015,9 hPa 0,0 l/m 10,0 km/h (2 Bft) SW 220 -0,1 C -2,1 C 14,5 km/h (3 Bft)
18.03.2019 06:25 1,2 C 91 % 1016,0 hPa 0,0 l/m 10,7 km/h (2 Bft) SW 223 -0,1 C -2,7 C 12,9 km/h (3 Bft)
18.03.2019 06:20 1,2 C 90 % 1015,8 hPa 0,0 l/m 11,6 km/h (2 Bft) SW 216 -0,3 C -3,3 C 17,7 km/h (3 Bft)
18.03.2019 06:15 1,3 C 90 % 1015,8 hPa 0,0 l/m 9,8 km/h (2 Bft) SW 223 -0,2 C -1,9 C 12,9 km/h (3 Bft)
18.03.2019 06:10 1,3 C 90 % 1015,7 hPa 0,0 l/m 12,5 km/h (2 Bft) SW 215 -0,2 C -3,8 C 17,7 km/h (3 Bft)
18.03.2019 06:05 1,4 C 89 % 1015,6 hPa 0,0 l/m 13,7 km/h (3 Bft) SW 217 -0,2 C -4,5 C 20,9 km/h (4 Bft)
18.03.2019 06:00 1,4 C 88 % 1015,7 hPa 0,0 l/m 14,2 km/h (3 Bft) SW 217 -0,4 C -4,8 C 22,5 km/h (4 Bft)
18.03.2019 05:55 1,4 C 88 % 1015,6 hPa 0,0 l/m 11,4 km/h (2 Bft) SW 219 -0,4 C -3,0 C 14,5 km/h (3 Bft)
18.03.2019 05:50 1,3 C 88 % 1015,5 hPa 0,0 l/m 11,5 km/h (2 Bft) S-SW 212 -0,5 C -3,2 C 17,7 km/h (3 Bft)
18.03.2019 05:45 1,3 C 88 % 1015,5 hPa 0,0 l/m 9,5 km/h (2 Bft) S-SW 213 -0,5 C -1,6 C 12,9 km/h (3 Bft)
18.03.2019 05:40 1,2 C 88 % 1015,5 hPa 0,0 l/m 9,6 km/h (2 Bft) S-SW 196 -0,6 C -1,8 C 16,1 km/h (3 Bft)
18.03.2019 05:35 1,2 C 88 % 1015,4 hPa 0,0 l/m 8,8 km/h (2 Bft) SW 215 -0,6 C -1,1 C 12,9 km/h (3 Bft)
18.03.2019 05:30 1,2 C 87 % 1015,4 hPa 0,0 l/m 8,9 km/h (2 Bft) S-SW 203 -0,7 C -1,2 C 11,3 km/h (2 Bft)
18.03.2019 05:25 1,1 C 87 % 1015,4 hPa 0,0 l/m 8,8 km/h (2 Bft) SW 219 -0,8 C -1,2 C 12,9 km/h (3 Bft)
18.03.2019 05:20 1,1 C 87 % 1015,4 hPa 0,0 l/m 9,6 km/h (2 Bft) S 186 -0,8 C -1,9 C 14,5 km/h (3 Bft)
18.03.2019 05:15 1,1 C 87 % 1015,4 hPa 0,0 l/m 9,2 km/h (2 Bft) S 179 -0,8 C -1,6 C 12,9 km/h (3 Bft)
18.03.2019 05:10 1,1 C 87 % 1015,2 hPa 0,0 l/m 9,4 km/h (2 Bft) S-SO 167 -0,8 C -1,7 C 14,5 km/h (3 Bft)
18.03.2019 05:05 1,1 C 87 % 1015,3 hPa 0,0 l/m 9,2 km/h (2 Bft) S-SO 166 -0,8 C -1,6 C 14,5 km/h (3 Bft)
18.03.2019 05:00 1,1 C 87 % 1015,3 hPa 0,0 l/m 9,6 km/h (2 Bft) S 182 -0,8 C -1,9 C 14,5 km/h (3 Bft)
18.03.2019 04:55 1,1 C 86 % 1015,3 hPa 0,0 l/m 9,0 km/h (2 Bft) S 184 -1,0 C -1,4 C 12,9 km/h (3 Bft)
18.03.2019 04:50 1,1 C 86 % 1015,3 hPa 0,0 l/m 9,1 km/h (2 Bft) S-SW 200 -1,0 C -1,5 C 14,5 km/h (3 Bft)
18.03.2019 04:45 1,1 C 86 % 1015,2 hPa 0,0 l/m 7,1 km/h (2 Bft) S 177 -1,0 C 0,4 C 11,3 km/h (2 Bft)
18.03.2019 04:40 1,1 C 86 % 1015,2 hPa 0,0 l/m 8,3 km/h (2 Bft) S 174 -1,0 C -0,8 C 11,3 km/h (2 Bft)
18.03.2019 04:35 1,1 C 86 % 1015,1 hPa 0,0 l/m 7,8 km/h (2 Bft) S 182 -1,0 C -0,3 C 11,3 km/h (2 Bft)
18.03.2019 04:30 1,1 C 86 % 1015,0 hPa 0,0 l/m 6,3 km/h (2 Bft) S 177 -1,0 C 1,1 C 11,3 km/h (2 Bft)
18.03.2019 04:25 1,1 C 86 % 1015,0 hPa 0,0 l/m 6,8 km/h (2 Bft) S 174 -1,0 C 0,7 C 11,3 km/h (2 Bft)
18.03.2019 04:20 1,0 C 86 % 1015,0 hPa 0,0 l/m 7,4 km/h (2 Bft) S 184 -1,1 C -0,0 C 12,9 km/h (3 Bft)
18.03.2019 04:15 1,0 C 86 % 1014,9 hPa 0,0 l/m 7,5 km/h (2 Bft) S 185 -1,1 C -0,1 C 11,3 km/h (2 Bft)
18.03.2019 04:10 1,0 C 85 % 1014,8 hPa 0,0 l/m 8,7 km/h (2 Bft) S-SW 203 -1,2 C -1,2 C 16,1 km/h (3 Bft)
18.03.2019 04:05 1,1 C 85 % 1014,7 hPa 0,0 l/m 6,7 km/h (2 Bft) S 175 -1,1 C 0,8 C 9,7 km/h (2 Bft)
18.03.2019 04:00 1,1 C 85 % 1014,8 hPa 0,0 l/m 7,7 km/h (2 Bft) S-SW 195 -1,1 C -0,2 C 12,9 km/h (3 Bft)
18.03.2019 03:55 1,2 C 85 % 1014,9 hPa 0,0 l/m 9,5 km/h (2 Bft) S 187 -1,0 C -1,7 C 12,9 km/h (3 Bft)
18.03.2019 03:50 1,2 C 85 % 1014,9 hPa 0,0 l/m 10,7 km/h (2 Bft) S-SW 201 -1,0 C -2,7 C 14,5 km/h (3 Bft)
18.03.2019 03:45 1,2 C 85 % 1014,9 hPa 0,0 l/m 12,2 km/h (2 Bft) S-SW 212 -1,0 C -3,8 C 16,1 km/h (3 Bft)
18.03.2019 03:40 1,1 C 85 % 1015,0 hPa 0,0 l/m 11,5 km/h (2 Bft) S-SW 198 -1,1 C -3,4 C 17,7 km/h (3 Bft)
18.03.2019 03:35 1,2 C 85 % 1015,0 hPa 0,0 l/m 11,9 km/h (2 Bft) S-SW 194 -1,0 C -3,5 C 16,1 km/h (3 Bft)
18.03.2019 03:30 1,2 C 85 % 1014,8 hPa 0,0 l/m 13,2 km/h (3 Bft) S-SW 201 -1,0 C -4,4 C 19,3 km/h (3 Bft)
18.03.2019 03:25 1,3 C 85 % 1014,6 hPa 0,0 l/m 12,6 km/h (3 Bft) S-SW 207 -0,9 C -3,9 C 17,7 km/h (3 Bft)
18.03.2019 03:20 1,4 C 85 % 1014,5 hPa 0,0 l/m 13,9 km/h (3 Bft) SW 220 -0,8 C -4,6 C 17,7 km/h (3 Bft)
18.03.2019 03:15 1,5 C 84 % 1014,7 hPa 0,0 l/m 14,9 km/h (3 Bft) SW 216 -0,9 C -5,1 C 19,3 km/h (3 Bft)
18.03.2019 03:10 1,6 C 84 % 1014,8 hPa 0,0 l/m 14,2 km/h (3 Bft) SW 217 -0,8 C -4,6 C 19,3 km/h (3 Bft)
18.03.2019 03:05 1,6 C 84 % 1014,9 hPa 0,0 l/m 16,1 km/h (3 Bft) SW 229 -0,8 C -5,7 C 24,1 km/h (4 Bft)
18.03.2019 03:00 1,6 C 84 % 1015,0 hPa 0,0 l/m 15,9 km/h (3 Bft) SW 231 -0,8 C -5,5 C 20,9 km/h (4 Bft)
18.03.2019 02:55 1,6 C 84 % 1015,0 hPa 0,0 l/m 16,3 km/h (3 Bft) W-SW 244 -0,8 C -5,8 C 22,5 km/h (4 Bft)
18.03.2019 02:50 1,6 C 84 % 1014,9 hPa 0,0 l/m 14,8 km/h (3 Bft) W-SW 238 -0,8 C -4,9 C 20,9 km/h (4 Bft)
18.03.2019 02:45 1,5 C 84 % 1014,9 hPa 0,0 l/m 14,8 km/h (3 Bft) SW 227 -0,9 C -5,0 C 20,9 km/h (4 Bft)
18.03.2019 02:40 1,5 C 84 % 1014,9 hPa 0,0 l/m 15,8 km/h (3 Bft) SW 233 -0,9 C -5,6 C 22,5 km/h (4 Bft)
18.03.2019 02:35 1,4 C 84 % 1014,7 hPa 0,0 l/m 16,1 km/h (3 Bft) W-SW 248 -1,0 C -5,9 C 22,5 km/h (4 Bft)
18.03.2019 02:30 1,4 C 84 % 1014,8 hPa 0,0 l/m 17,9 km/h (3 Bft) W-SW 245 -1,0 C -6,8 C 29,0 km/h (5 Bft)
18.03.2019 02:25 1,5 C 84 % 1014,7 hPa 0,0 l/m 15,9 km/h (3 Bft) SW 223 -0,9 C -5,7 C 27,4 km/h (5 Bft)
18.03.2019 02:20 1,5 C 84 % 1014,7 hPa 0,0 l/m 17,5 km/h (3 Bft) W-SW 251 -0,9 C -6,5 C 22,5 km/h (4 Bft)
18.03.2019 02:15 1,5 C 84 % 1014,9 hPa 0,0 l/m 17,9 km/h (3 Bft) SW 235 -0,9 C -6,7 C 22,5 km/h (4 Bft)
18.03.2019 02:10 1,5 C 84 % 1015,0 hPa 0,0 l/m 17,9 km/h (3 Bft) W-SW 240 -0,9 C -6,7 C 24,1 km/h (4 Bft)
18.03.2019 02:05 1,5 C 84 % 1015,0 hPa 0,0 l/m 18,0 km/h (3 Bft) W-SW 238 -0,9 C -6,8 C 25,7 km/h (4 Bft)
18.03.2019 02:00 1,6 C 83 % 1015,0 hPa 0,0 l/m 20,7 km/h (4 Bft) SW 234 -1,0 C -7,9 C 30,6 km/h (5 Bft)
18.03.2019 01:55 1,6 C 83 % 1014,9 hPa 0,0 l/m 19,6 km/h (3 Bft) W-SW 238 -1,0 C -7,4 C 24,1 km/h (4 Bft)
18.03.2019 01:50 1,7 C 83 % 1014,9 hPa 0,0 l/m 22,0 km/h (4 Bft) W-SW 246 -0,9 C -8,3 C 30,6 km/h (5 Bft)
18.03.2019 01:45 1,7 C 83 % 1014,9 hPa 0,0 l/m 22,0 km/h (4 Bft) W-SW 247 -0,9 C -8,3 C 29,0 km/h (5 Bft)
18.03.2019 01:40 1,7 C 82 % 1014,7 hPa 0,0 l/m 19,9 km/h (4 Bft) W-SW 242 -1,0 C -7,4 C 25,7 km/h (4 Bft)
18.03.2019 01:35 1,8 C 82 % 1015,0 hPa 0,0 l/m 18,4 km/h (3 Bft) SW 230 -0,9 C -6,6 C 24,1 km/h (4 Bft)
18.03.2019 01:30 1,8 C 81 % 1014,9 hPa 0,0 l/m 20,7 km/h (4 Bft) W-SW 238 -1,1 C -7,6 C 29,0 km/h (5 Bft)
18.03.2019 01:25 1,8 C 81 % 1014,9 hPa 0,0 l/m 20,0 km/h (4 Bft) W-SW 246 -1,1 C -7,3 C 25,7 km/h (4 Bft)
18.03.2019 01:20 1,9 C 81 % 1014,8 hPa 0,0 l/m 20,2 km/h (4 Bft) W-SW 243 -1,0 C -7,3 C 30,6 km/h (5 Bft)
18.03.2019 01:15 1,9 C 81 % 1014,8 hPa 0,0 l/m 23,2 km/h (4 Bft) SW 236 -1,0 C -8,5 C 32,2 km/h (5 Bft)
18.03.2019 01:10 1,9 C 81 % 1014,7 hPa 0,0 l/m 23,5 km/h (4 Bft) W-SW 254 -1,0 C -8,6 C 30,6 km/h (5 Bft)
18.03.2019 01:05 1,9 C 81 % 1014,8 hPa 0,0 l/m 22,5 km/h (4 Bft) W-SW 242 -1,0 C -8,2 C 30,6 km/h (5 Bft)
18.03.2019 01:00 2,0 C 81 % 1014,6 hPa 0,0 l/m 24,7 km/h (4 Bft) SW 228 -0,9 C -8,9 C 30,6 km/h (5 Bft)
18.03.2019 00:55 2,1 C 81 % 1014,4 hPa 0,0 l/m 23,4 km/h (4 Bft) W-SW 248 -0,8 C -8,3 C 35,4 km/h (5 Bft)
18.03.2019 00:50 2,1 C 82 % 1014,4 hPa 0,0 l/m 21,1 km/h (4 Bft) W 261 -0,6 C -7,4 C 29,0 km/h (5 Bft)
18.03.2019 00:45 2,2 C 81 % 1014,5 hPa 0,0 l/m 22,7 km/h (4 Bft) W-SW 257 -0,7 C -7,9 C 30,6 km/h (5 Bft)
18.03.2019 00:40 2,2 C 82 % 1014,6 hPa 0,0 l/m 24,4 km/h (4 Bft) W-SW 250 -0,5 C -8,5 C 33,8 km/h (5 Bft)
18.03.2019 00:35 2,2 C 82 % 1014,7 hPa 0,0 l/m 22,2 km/h (4 Bft) W 274 -0,5 C -7,7 C 32,2 km/h (5 Bft)
18.03.2019 00:30 2,1 C 83 % 1014,7 hPa 0,0 l/m 28,1 km/h (5 Bft) W-SW 245 -0,5 C -9,9 C 35,4 km/h (5 Bft)
18.03.2019 00:25 2,2 C 83 % 1014,7 hPa 0,0 l/m 20,5 km/h (4 Bft) W-SW 244 -0,4 C -7,0 C 25,7 km/h (4 Bft)
18.03.2019 00:20 2,2 C 83 % 1014,6 hPa 0,0 l/m 17,3 km/h (3 Bft) W-SW 252 -0,4 C -5,5 C 24,1 km/h (4 Bft)
18.03.2019 00:15 2,3 C 82 % 1014,6 hPa 0,0 l/m 16,6 km/h (3 Bft) W-SW 249 -0,4 C -5,1 C 20,9 km/h (4 Bft)
18.03.2019 00:10 2,4 C 81 % 1014,2 hPa 0,0 l/m 24,0 km/h (4 Bft) W-SW 254 -0,5 C -8,1 C 35,4 km/h (5 Bft)
18.03.2019 00:05 2,4 C 82 % 1014,2 hPa 0,0 l/m 26,3 km/h (4 Bft) W 261 -0,4 C -8,9 C 33,8 km/h (5 Bft)
18.03.2019 00:00 2,4 C 81 % 1014,1 hPa 0,0 l/m 23,2 km/h (4 Bft) W-SW 248 -0,5 C -7,8 C 32,2 km/h (5 Bft)
17.03.2019 23:55 2,6 C 81 % 1014,1 hPa 0,0 l/m 19,7 km/h (3 Bft) W-SW 239 -0,3 C -6,1 C 30,6 km/h (5 Bft)
17.03.2019 23:50 2,6 C 80 % 1014,2 hPa 0,0 l/m 23,6 km/h (4 Bft) W-SW 244 -0,5 C -7,7 C 32,2 km/h (5 Bft)
17.03.2019 23:45 2,6 C 80 % 1014,2 hPa 0,0 l/m 24,5 km/h (4 Bft) W-SW 246 -0,5 C -8,0 C 33,8 km/h (5 Bft)
17.03.2019 23:40 2,6 C 80 % 1014,3 hPa 0,0 l/m 24,8 km/h (4 Bft) SW 234 -0,5 C -8,1 C 37,0 km/h (5 Bft)
17.03.2019 23:35 2,6 C 81 % 1014,2 hPa 0,0 l/m 19,1 km/h (3 Bft) W-SW 255 -0,3 C -5,9 C 29,0 km/h (5 Bft)
17.03.2019 23:30 2,7 C 81 % 1014,3 hPa 0,0 l/m 20,1 km/h (4 Bft) W-SW 240 -0,2 C -6,2 C 25,7 km/h (4 Bft)
17.03.2019 23:25 2,7 C 81 % 1014,2 hPa 0,0 l/m 22,7 km/h (4 Bft) W-SW 257 -0,2 C -7,2 C 35,4 km/h (5 Bft)
17.03.2019 23:20 2,8 C 81 % 1014,1 hPa 0,0 l/m 19,9 km/h (4 Bft) W-SW 250 -0,1 C -6,0 C 25,7 km/h (4 Bft)
17.03.2019 23:15 2,8 C 80 % 1013,7 hPa 0,0 l/m 25,5 km/h (4 Bft) W 261 -0,3 C -8,1 C 38,6 km/h (6 Bft)
17.03.2019 23:10 2,8 C 80 % 1013,7 hPa 0,0 l/m 26,8 km/h (4 Bft) W 263 -0,3 C -8,5 C 35,4 km/h (5 Bft)
17.03.2019 23:05 2,9 C 81 % 1013,7 hPa 0,0 l/m 26,1 km/h (4 Bft) W-SW 246 -0,0 C -8,2 C 33,8 km/h (5 Bft)
17.03.2019 23:00 2,9 C 81 % 1013,5 hPa 0,0 l/m 25,4 km/h (4 Bft) W-SW 251 -0,0 C -7,9 C 37,0 km/h (5 Bft)
17.03.2019 22:55 2,9 C 81 % 1013,6 hPa 0,0 l/m 21,0 km/h (4 Bft) W-SW 256 -0,0 C -6,3 C 30,6 km/h (5 Bft)
17.03.2019 22:50 2,9 C 82 % 1013,5 hPa 0,0 l/m 25,2 km/h (4 Bft) W 261 0,1 C -7,9 C 40,2 km/h (6 Bft)
17.03.2019 22:45 2,9 C 83 % 1013,6 hPa 0,0 l/m 17,1 km/h (3 Bft) W-SW 245 0,3 C -4,6 C 30,6 km/h (5 Bft)
17.03.2019 22:40 3,0 C 83 % 1013,6 hPa 0,0 l/m 18,9 km/h (3 Bft) W-SW 238 0,4 C -5,3 C 32,2 km/h (5 Bft)
17.03.2019 22:35 3,1 C 84 % 1013,4 hPa 0,0 l/m 19,7 km/h (3 Bft) W-SW 250 0,7 C -5,5 C 27,4 km/h (5 Bft)
17.03.2019 22:30 3,1 C 83 % 1013,3 hPa 0,0 l/m 21,6 km/h (4 Bft) SW 232 0,5 C -6,3 C 30,6 km/h (5 Bft)
17.03.2019 22:25 3,0 C 84 % 1013,3 hPa 0,0 l/m 23,3 km/h (4 Bft) W-SW 248 0,6 C -7,1 C 33,8 km/h (5 Bft)
17.03.2019 22:20 3,0 C 84 % 1013,5 hPa 0,0 l/m 23,5 km/h (4 Bft) SW 231 0,6 C -7,1 C 38,6 km/h (6 Bft)
17.03.2019 22:15 3,0 C 85 % 1013,3 hPa 0,0 l/m 20,9 km/h (4 Bft) W-SW 244 0,7 C -6,1 C 29,0 km/h (5 Bft)
17.03.2019 22:10 3,0 C 85 % 1013,2 hPa 0,0 l/m 21,3 km/h (4 Bft) SW 234 0,7 C -6,3 C 33,8 km/h (5 Bft)
17.03.2019 22:05 2,9 C 85 % 1013,1 hPa 0,0 l/m 17,4 km/h (3 Bft) W-SW 240 0,6 C -4,7 C 27,4 km/h (5 Bft)
17.03.2019 22:00 2,9 C 85 % 1013,1 hPa 0,0 l/m 17,6 km/h (3 Bft) SW 229 0,6 C -4,8 C 27,4 km/h (5 Bft)
17.03.2019 21:55 2,9 C 86 % 1013,1 hPa 0,0 l/m 17,2 km/h (3 Bft) SW 234 0,8 C -4,6 C 24,1 km/h (4 Bft)
17.03.2019 21:50 2,9 C 85 % 1013,0 hPa 0,0 l/m 20,5 km/h (4 Bft) SW 227 0,6 C -6,1 C 29,0 km/h (5 Bft)
17.03.2019 21:45 2,9 C 86 % 1012,9 hPa 0,0 l/m 19,2 km/h (3 Bft) W-SW 254 0,8 C -5,5 C 25,7 km/h (4 Bft)
17.03.2019 21:40 2,9 C 86 % 1012,7 hPa 0,0 l/m 17,7 km/h (3 Bft) SW 236 0,8 C -4,8 C 22,5 km/h (4 Bft)
17.03.2019 21:35 3,0 C 86 % 1012,6 hPa 0,0 l/m 14,3 km/h (3 Bft) S-SW 204 0,9 C -3,0 C 17,7 km/h (3 Bft)
17.03.2019 21:30 3,0 C 85 % 1012,6 hPa 0,0 l/m 17,1 km/h (3 Bft) SW 226 0,7 C -4,4 C 24,1 km/h (4 Bft)
17.03.2019 21:25 3,1 C 86 % 1012,4 hPa 0,0 l/m 16,7 km/h (3 Bft) SW 216 1,0 C -4,1 C 24,1 km/h (4 Bft)
17.03.2019 21:20 3,1 C 86 % 1012,4 hPa 0,0 l/m 20,7 km/h (4 Bft) W-SW 240 1,0 C -5,9 C 29,0 km/h (5 Bft)
17.03.2019 21:15 3,1 C 86 % 1012,4 hPa 0,0 l/m 24,2 km/h (4 Bft) SW 234 1,0 C -7,2 C 32,2 km/h (5 Bft)
17.03.2019 21:10 3,1 C 86 % 1012,1 hPa 0,0 l/m 22,5 km/h (4 Bft) SW 228 1,0 C -6,6 C 29,0 km/h (5 Bft)
17.03.2019 21:05 3,1 C 86 % 1012,0 hPa 0,0 l/m 20,7 km/h (4 Bft) W-SW 244 1,0 C -5,9 C 29,0 km/h (5 Bft)
17.03.2019 21:00 3,2 C 86 % 1012,1 hPa 0,0 l/m 24,5 km/h (4 Bft) SW 221 1,1 C -7,2 C 37,0 km/h (5 Bft)
17.03.2019 20:55 3,2 C 86 % 1011,9 hPa 0,0 l/m 24,0 km/h (4 Bft) S-SW 203 1,1 C -7,0 C 33,8 km/h (5 Bft)
17.03.2019 20:50 3,2 C 87 % 1012,0 hPa 0,0 l/m 25,6 km/h (4 Bft) SW 217 1,2 C -7,6 C 33,8 km/h (5 Bft)
17.03.2019 20:45 3,3 C 86 % 1012,0 hPa 0,0 l/m 24,3 km/h (4 Bft) SW 223 1,2 C -7,0 C 33,8 km/h (5 Bft)
17.03.2019 20:40 3,3 C 86 % 1011,9 hPa 0,0 l/m 24,9 km/h (4 Bft) SW 234 1,2 C -7,2 C 37,0 km/h (5 Bft)
17.03.2019 20:35 3,3 C 86 % 1011,7 hPa 0,0 l/m 29,1 km/h (5 Bft) W-SW 246 1,2 C -8,5 C 41,8 km/h (6 Bft)
17.03.2019 20:30 3,3 C 87 % 1011,6 hPa 0,0 l/m 28,6 km/h (5 Bft) W-SW 252 1,3 C -8,4 C 43,5 km/h (6 Bft)
17.03.2019 20:25 3,4 C 87 % 1011,6 hPa 0,0 l/m 28,3 km/h (5 Bft) SW 225 1,4 C -8,1 C 40,2 km/h (6 Bft)
17.03.2019 20:20 3,4 C 86 % 1011,8 hPa 0,0 l/m 26,0 km/h (4 Bft) W 263 1,3 C -7,4 C 33,8 km/h (5 Bft)
17.03.2019 20:15 3,4 C 86 % 1011,9 hPa 0,0 l/m 25,7 km/h (4 Bft) W-SW 246 1,3 C -7,3 C 37,0 km/h (5 Bft)
17.03.2019 20:10 3,4 C 86 % 1011,9 hPa 0,0 l/m 31,1 km/h (5 Bft) W-SW 246 1,3 C -8,9 C 40,2 km/h (6 Bft)
17.03.2019 20:05 3,5 C 87 % 1011,7 hPa 0,0 l/m 27,7 km/h (5 Bft) SW 221 1,5 C -7,8 C 35,4 km/h (5 Bft)
17.03.2019 20:00 3,5 C 87 % 1011,7 hPa 0,0 l/m 27,5 km/h (5 Bft) W-SW 239 1,5 C -7,8 C 38,6 km/h (6 Bft)
17.03.2019 19:55 3,6 C 87 % 1011,4 hPa 0,0 l/m 25,5 km/h (4 Bft) SW 226 1,6 C -7,0 C 33,8 km/h (5 Bft)
17.03.2019 19:50 3,5 C 87 % 1011,1 hPa 0,0 l/m 21,7 km/h (4 Bft) W-SW 237 1,5 C -5,8 C 29,0 km/h (5 Bft)
17.03.2019 19:45 3,5 C 87 % 1010,8 hPa 0,0 l/m 25,5 km/h (4 Bft) W-SW 244 1,5 C -7,1 C 35,4 km/h (5 Bft)
17.03.2019 19:40 3,4 C 88 % 1010,3 hPa 0,0 l/m 23,2 km/h (4 Bft) SW 219 1,6 C -6,5 C 33,8 km/h (5 Bft)
17.03.2019 19:35 3,4 C 89 % 1010,3 hPa 0,0 l/m 23,1 km/h (4 Bft) SW 225 1,8 C -6,4 C 33,8 km/h (5 Bft)
17.03.2019 19:30 3,4 C 89 % 1010,1 hPa 0,0 l/m 27,4 km/h (5 Bft) W-SW 238 1,8 C -7,9 C 41,8 km/h (6 Bft)
17.03.2019 19:25 3,4 C 89 % 1010,0 hPa 0,0 l/m 26,0 km/h (4 Bft) W 261 1,8 C -7,4 C 35,4 km/h (5 Bft)
17.03.2019 19:20 3,4 C 89 % 1009,7 hPa 0,2 l/m 25,1 km/h (4 Bft) SW 222 1,8 C -7,1 C 33,8 km/h (5 Bft)
17.03.2019 19:15 3,5 C 88 % 1009,5 hPa 0,0 l/m 25,2 km/h (4 Bft) W-SW 244 1,7 C -7,0 C 33,8 km/h (5 Bft)
17.03.2019 19:10 3,6 C 88 % 1009,5 hPa 0,0 l/m 31,7 km/h (5 Bft) W-SW 242 1,8 C -8,8 C 41,8 km/h (6 Bft)
17.03.2019 19:05 3,6 C 88 % 1009,3 hPa 0,0 l/m 26,1 km/h (4 Bft) W-SW 249 1,8 C -7,2 C 40,2 km/h (6 Bft)
17.03.2019 19:00 3,6 C 87 % 1009,2 hPa 0,0 l/m 28,2 km/h (5 Bft) W 261 1,6 C -7,8 C 37,0 km/h (5 Bft)
17.03.2019 18:55 3,6 C 88 % 1009,0 hPa 0,0 l/m 27,3 km/h (5 Bft) W-SW 247 1,8 C -7,6 C 37,0 km/h (5 Bft)
17.03.2019 18:50 3,6 C 88 % 1008,8 hPa 0,0 l/m 28,2 km/h (5 Bft) W-SW 256 1,8 C -7,8 C 38,6 km/h (6 Bft)
17.03.2019 18:45 3,6 C 87 % 1008,5 hPa 0,0 l/m 26,1 km/h (4 Bft) W 269 1,6 C -7,2 C 32,2 km/h (5 Bft)
17.03.2019 18:40 3,5 C 87 % 1008,4 hPa 0,0 l/m 26,3 km/h (4 Bft) W 265 1,5 C -7,4 C 33,8 km/h (5 Bft)
17.03.2019 18:35 3,5 C 87 % 1008,5 hPa 0,0 l/m 26,1 km/h (4 Bft) W-SW 254 1,5 C -7,3 C 33,8 km/h (5 Bft)
17.03.2019 18:30 3,5 C 87 % 1008,3 hPa 0,0 l/m 25,0 km/h (4 Bft) W 260 1,5 C -7,0 C 32,2 km/h (5 Bft)
17.03.2019 18:25 3,5 C 87 % 1008,3 hPa 0,0 l/m 28,3 km/h (5 Bft) W 264 1,5 C -8,0 C 40,2 km/h (6 Bft)
17.03.2019 18:20 3,4 C 88 % 1008,2 hPa 0,0 l/m 24,9 km/h (4 Bft) W 279 1,6 C -7,1 C 37,0 km/h (5 Bft)
17.03.2019 18:15 3,4 C 88 % 1008,3 hPa 0,0 l/m 26,8 km/h (4 Bft) W 273 1,6 C -7,7 C 43,5 km/h (6 Bft)
17.03.2019 18:10 3,4 C 89 % 1008,1 hPa 0,0 l/m 24,9 km/h (4 Bft) W-NW 282 1,8 C -7,1 C 30,6 km/h (5 Bft)
17.03.2019 18:05 3,3 C 89 % 1008,1 hPa 0,0 l/m 26,8 km/h (4 Bft) W 264 1,7 C -7,8 C 37,0 km/h (5 Bft)
17.03.2019 18:00 3,3 C 89 % 1008,0 hPa 0,0 l/m 26,0 km/h (4 Bft) W-SW 240 1,7 C -7,6 C 40,2 km/h (6 Bft)
17.03.2019 17:55 3,3 C 89 % 1007,9 hPa 0,0 l/m 25,2 km/h (4 Bft) W 264 1,7 C -7,3 C 40,2 km/h (6 Bft)
17.03.2019 17:50 3,3 C 89 % 1008,0 hPa 0,0 l/m 29,7 km/h (5 Bft) W-SW 244 1,7 C -8,7 C 46,7 km/h (6 Bft)
17.03.2019 17:45 3,4 C 89 % 1008,1 hPa 0,0 l/m 27,0 km/h (5 Bft) W 261 1,8 C -7,8 C 35,4 km/h (5 Bft)
17.03.2019 17:40 3,4 C 89 % 1008,3 hPa 0,0 l/m 28,2 km/h (5 Bft) W-SW 247 1,8 C -8,1 C 40,2 km/h (6 Bft)
17.03.2019 17:35 3,5 C 90 % 1008,3 hPa 0,2 l/m 29,0 km/h (5 Bft) W 259 2,0 C -8,2 C 35,4 km/h (5 Bft)
17.03.2019 17:30 3,5 C 90 % 1008,2 hPa 0,0 l/m 26,4 km/h (4 Bft) W 269 2,0 C -7,4 C 43,5 km/h (6 Bft)
17.03.2019 17:25 3,6 C 90 % 1008,0 hPa 0,0 l/m 25,2 km/h (4 Bft) W 259 2,1 C -6,9 C 37,0 km/h (5 Bft)
17.03.2019 17:20 3,7 C 90 % 1008,1 hPa 0,0 l/m 26,7 km/h (4 Bft) W 272 2,2 C -7,2 C 43,5 km/h (6 Bft)
17.03.2019 17:15 3,8 C 90 % 1008,2 hPa 0,0 l/m 34,1 km/h (5 Bft) W 277 2,3 C -9,1 C 49,9 km/h (7 Bft)
17.03.2019 17:10 3,9 C 91 % 1008,4 hPa 0,0 l/m 27,0 km/h (5 Bft) W 266 2,6 C -7,1 C 56,3 km/h (7 Bft)
17.03.2019 17:05 4,1 C 90 % 1008,2 hPa 0,0 l/m 25,4 km/h (4 Bft) W 263 2,6 C -6,3 C 33,8 km/h (5 Bft)
17.03.2019 17:00 4,2 C 91 % 1008,1 hPa 0,2 l/m 25,8 km/h (4 Bft) W 263 2,9 C -6,3 C 37,0 km/h (5 Bft)
17.03.2019 16:55 4,3 C 91 % 1008,0 hPa 0,0 l/m 21,8 km/h (4 Bft) W 278 3,0 C -4,8 C 32,2 km/h (5 Bft)
17.03.2019 16:50 4,3 C 90 % 1007,8 hPa 0,2 l/m 21,1 km/h (4 Bft) W 265 2,8 C -4,5 C 32,2 km/h (5 Bft)
17.03.2019 16:45 4,4 C 90 % 1007,7 hPa 0,0 l/m 25,8 km/h (4 Bft) W-SW 257 2,9 C -6,0 C 35,4 km/h (5 Bft)
17.03.2019 16:40 4,4 C 90 % 1007,8 hPa 0,0 l/m 24,8 km/h (4 Bft) W 271 2,9 C -5,7 C 37,0 km/h (5 Bft)
17.03.2019 16:35 4,5 C 90 % 1007,6 hPa 0,0 l/m 23,5 km/h (4 Bft) W 279 3,0 C -5,1 C 45,1 km/h (6 Bft)
17.03.2019 16:30 4,6 C 89 % 1007,5 hPa 0,0 l/m 24,3 km/h (4 Bft) W-NW 282 2,9 C -5,3 C 37,0 km/h (5 Bft)
17.03.2019 16:25 4,8 C 88 % 1007,4 hPa 0,2 l/m 26,0 km/h (4 Bft) W-NW 288 3,0 C -5,5 C 41,8 km/h (6 Bft)
17.03.2019 16:20 5,2 C 88 % 1007,1 hPa 0,0 l/m 31,3 km/h (5 Bft) W 267 3,4 C -6,4 C 45,1 km/h (6 Bft)
17.03.2019 16:15 5,6 C 88 % 1007,0 hPa 0,2 l/m 27,6 km/h (5 Bft) W-NW 300 3,8 C -4,9 C 41,8 km/h (6 Bft)
17.03.2019 16:10 6,0 C 87 % 1006,7 hPa 0,2 l/m 35,2 km/h (5 Bft) W 277 4,0 C -6,1 C 49,9 km/h (7 Bft)
17.03.2019 16:05 6,6 C 86 % 1006,6 hPa 0,0 l/m 35,2 km/h (5 Bft) W 278 4,4 C -5,3 C 49,9 km/h (7 Bft)
17.03.2019 16:00 7,1 C 85 % 1006,3 hPa 0,2 l/m 29,2 km/h (5 Bft) W-SW 252 4,8 C -3,2 C 43,5 km/h (6 Bft)
17.03.2019 15:55 7,7 C 84 % 1006,2 hPa 0,0 l/m 32,1 km/h (5 Bft) W 261 5,2 C -3,0 C 46,7 km/h (6 Bft)
17.03.2019 15:50 8,3 C 80 % 1006,0 hPa 0,2 l/m 37,1 km/h (5 Bft) W 280 5,1 C -3,2 C 51,5 km/h (7 Bft)
17.03.2019 15:45 9,5 C 75 % 1005,7 hPa 0,0 l/m 41,3 km/h (6 Bft) W 271 5,3 C -2,0 C 56,3 km/h (7 Bft)
17.03.2019 15:40 11,2 C 66 % 1005,4 hPa 0,0 l/m 45,5 km/h (6 Bft) W 263 5,1 C -0,0 C 61,2 km/h (7 Bft)
17.03.2019 15:35 12,5 C 54 % 1004,9 hPa 0,0 l/m 31,7 km/h (5 Bft) W 269 3,5 C 3,9 C 41,8 km/h (6 Bft)
17.03.2019 15:30 12,7 C 52 % 1004,6 hPa 0,0 l/m 31,0 km/h (5 Bft) W-SW 238 3,1 C 4,3 C 45,1 km/h (6 Bft)
17.03.2019 15:25 12,8 C 51 % 1004,6 hPa 0,0 l/m 40,8 km/h (6 Bft) W-SW 241 2,9 C 2,9 C 53,1 km/h (7 Bft)
17.03.2019 15:20 13,0 C 51 % 1004,4 hPa 0,0 l/m 39,7 km/h (6 Bft) W-SW 238 3,1 C 3,4 C 54,7 km/h (7 Bft)
17.03.2019 15:15 13,2 C 52 % 1004,4 hPa 0,0 l/m 36,9 km/h (5 Bft) SW 229 3,6 C 4,0 C 53,1 km/h (7 Bft)
17.03.2019 15:10 13,3 C 51 % 1004,4 hPa 0,0 l/m 36,4 km/h (5 Bft) SW 219 3,4 C 4,3 C 51,5 km/h (7 Bft)
17.03.2019 15:05 13,3 C 50 % 1004,3 hPa 0,0 l/m 38,7 km/h (6 Bft) SW 219 3,1 C 4,0 C 56,3 km/h (7 Bft)
17.03.2019 15:00 13,3 C 50 % 1004,2 hPa 0,0 l/m 40,9 km/h (6 Bft) SW 228 3,1 C 3,7 C 56,3 km/h (7 Bft)
_ Min-Zeit 07:20 15:05 15:00 - 04:30 - - 04:10 13:00 04:05
Minimum _ 1,0 C 50 % 1004,2 hPa - 6,3 km/h (2 Bft) - - -1,2 C -10,1 C 9,7 km/h (2 Bft)
_ Max-Zeit 15:00 11:30 13:35 12:55 15:40 - - 15:45 15:30 15:40
Maximum _ 13,4 C 94 % 1019,9 hPa 0,2 l/m 45,5 km/h
W (6 Bft)
- - 5,3 C 4,3 C 61,2 km/h
W (7 Bft)
Durchschnitt _ 3,9 C 82 % 1013,5 hPa #2,8 l/m 21,9 km/h (4 Bft) W-SW - 0,9 C -4,4 C 30,8 km/h (5 Bft)